createdAt,value
2023-02-28T00:02:27.193Z,-11164.72
2023-02-28T00:05:35.618Z,-11163.31
2023-02-28T00:08:42.360Z,-11163.03
2023-02-28T00:11:50.542Z,-11159.09
2023-02-28T00:14:57.049Z,-11159.38
2023-02-28T00:18:04.336Z,-11152.34
2023-02-28T00:21:12.207Z,-11161.75
2023-02-28T00:24:18.259Z,-11160.34
2023-02-28T00:27:24.799Z,-11153.88
2023-02-28T00:30:31.186Z,-11153.88
2023-02-28T00:33:37.683Z,-11160.22
2023-02-28T00:36:47.348Z,-11164.16
2023-02-28T00:39:53.734Z,-11165.56
2023-02-28T00:43:00.025Z,-11166.81
2023-02-28T00:46:07.044Z,-11164.84
2023-02-28T00:49:12.931Z,-11162.19
2023-02-28T00:52:20.176Z,-11162.75
2023-02-28T00:55:26.230Z,-11162.47
2023-02-28T00:58:32.445Z,-11160.78
2023-02-28T01:01:38.338Z,-11151.91
2023-02-28T01:04:44.656Z,-11152.19
2023-02-28T01:07:52.340Z,-11155.44
2023-02-28T01:10:59.071Z,-11153.47
2023-02-28T01:14:05.967Z,-11157.41
2023-02-28T01:17:12.601Z,-11152.75
2023-02-28T01:20:18.838Z,-11146.00
2023-02-28T01:23:26.677Z,-11154.59
2023-02-28T01:26:33.684Z,-11139.00
2023-02-28T01:29:39.849Z,-11139.56
2023-02-28T01:32:46.192Z,-11143.78
2023-02-28T01:35:59.694Z,-11138.56
2023-02-28T01:39:07.325Z,-11145.31
2023-02-28T01:42:13.642Z,-11151.63
2023-02-28T01:45:26.016Z,-11155.28
2023-02-28T01:48:37.118Z,-11153.75
2023-02-28T01:51:47.540Z,-11147.56
2023-02-28T01:54:58.859Z,-11138.16
2023-02-28T01:58:08.456Z,-11144.75
2023-02-28T02:01:22.756Z,-11145.31
2023-02-28T02:04:35.217Z,-11140.53
2023-02-28T02:07:43.536Z,-11142.50
2023-02-28T02:10:55.227Z,-11147.28
2023-02-28T02:14:34.269Z,-11148.13
2023-02-28T02:17:43.982Z,-11145.59
2023-02-28T02:21:31.401Z,-11145.31
2023-02-28T02:25:14.338Z,-11142.78
2023-02-28T02:28:42.756Z,-11140.53
2023-02-28T02:32:11.721Z,-11138.84
2023-02-28T02:35:27.648Z,-11140.97
2023-02-28T02:38:37.626Z,-11139.13
2023-02-28T02:41:49.241Z,-11138.44
2023-02-28T02:45:03.500Z,-11135.47
2023-02-28T02:48:12.811Z,-11143.22
2023-02-28T02:51:23.480Z,-11140.25
2023-02-28T02:54:33.723Z,-11140.81
2023-02-28T02:57:45.481Z,-11133.66
2023-02-28T03:00:55.696Z,-11107.53
2023-02-28T03:04:05.232Z,-11101.50
2023-02-28T03:07:12.887Z,-11106.28
2023-02-28T03:10:32.401Z,-11101.06
2023-02-28T03:13:57.359Z,-11102.47
2023-02-28T03:17:20.801Z,-11108.94
2023-02-28T03:20:40.550Z,-11106.00
2023-02-28T03:23:58.426Z,-11111.75
2023-02-28T03:27:11.080Z,-11123.53
2023-02-28T03:30:26.328Z,-11127.34
2023-02-28T03:33:36.530Z,-11130.56
2023-02-28T03:36:49.839Z,-11132.94
2023-02-28T03:40:02.227Z,-11129.59
2023-02-28T03:43:15.054Z,-11130.13
2023-02-28T03:46:25.100Z,-11132.94
2023-02-28T03:49:37.243Z,-11126.22
2023-02-28T03:52:49.957Z,-11125.66
2023-02-28T03:56:01.719Z,-11118.91
2023-02-28T03:59:13.208Z,-11107.69
2023-02-28T04:02:19.734Z,-11110.34
2023-02-28T04:05:26.319Z,-11103.75
2023-02-28T04:08:32.485Z,-11106.97
2023-02-28T04:11:42.126Z,-11112.72
2023-02-28T04:14:48.357Z,-11124.81
2023-02-28T04:17:54.933Z,-11124.81
2023-02-28T04:21:03.012Z,-11114.00
2023-02-28T04:24:15.160Z,-11125.09
2023-02-28T04:27:23.212Z,-11125.38
2023-02-28T04:30:30.822Z,-11128.19
2023-02-28T04:33:37.366Z,-11130.41
2023-02-28T04:36:43.710Z,-11131.41
2023-02-28T04:39:50.032Z,-11127.63
2023-02-28T04:42:57.811Z,-11130.13
2023-02-28T04:46:06.760Z,-11122.84
2023-02-28T04:49:14.353Z,-11110.34
2023-02-28T04:52:20.779Z,-11097.69
2023-02-28T04:55:27.249Z,-11101.63
2023-02-28T04:58:35.433Z,-11112.03
2023-02-28T05:01:41.872Z,-11122.97
2023-02-28T05:04:48.395Z,-11125.94
2023-02-28T05:07:54.742Z,-11122.97
2023-02-28T05:11:01.916Z,-11127.19
2023-02-28T05:14:13.224Z,-11111.19
2023-02-28T05:17:19.648Z,-11112.44
2023-02-28T05:20:26.396Z,-11120.59
2023-02-28T05:23:33.031Z,-11122.41
2023-02-28T05:26:41.225Z,-11114.56
2023-02-28T05:29:49.203Z,-11123.25
2023-02-28T05:32:55.424Z,-11118.63
2023-02-28T05:36:02.281Z,-11115.97
2023-02-28T05:39:13.644Z,-11116.38
2023-02-28T05:42:19.971Z,-11115.25
2023-02-28T05:45:28.017Z,-11127.19
2023-02-28T05:48:35.221Z,-11117.09
2023-02-28T05:51:41.864Z,-11118.34
2023-02-28T05:54:49.032Z,-11108.94
2023-02-28T05:57:55.393Z,-11113.56
2023-02-28T06:01:21.346Z,-11127.91
2023-02-28T06:04:31.997Z,-11121.72
2023-02-28T06:07:38.645Z,-11119.19
2023-02-28T06:10:44.707Z,-11118.63
2023-02-28T06:13:51.156Z,-11125.38
2023-02-28T06:16:59.546Z,-11132.66
2023-02-28T06:20:06.924Z,-11137.44
2023-02-28T06:23:13.302Z,-11141.38
2023-02-28T06:26:19.841Z,-11127.06
2023-02-28T06:29:26.280Z,-11121.28
2023-02-28T06:32:34.111Z,-11133.78
2023-02-28T06:35:40.726Z,-11134.06
2023-02-28T06:38:49.430Z,-11138.56
2023-02-28T06:41:56.625Z,-11143.62
2023-02-28T06:45:04.542Z,-11143.91
2023-02-28T06:48:12.703Z,-11152.91
2023-02-28T06:51:21.410Z,-11150.50
2023-02-28T06:54:28.351Z,-11136.88
2023-02-28T06:57:36.696Z,-11131.53
2023-02-28T07:00:43.414Z,-11149.53
2023-02-28T07:03:53.452Z,-11150.94
2023-02-28T07:07:00.008Z,-11154.72
2023-02-28T07:10:07.355Z,-11147.84
2023-02-28T07:13:13.966Z,-11159.94
2023-02-28T07:16:20.978Z,-11145.59
2023-02-28T07:19:29.193Z,-11151.50
2023-02-28T07:22:35.564Z,-11174.13
2023-02-28T07:25:41.979Z,-11165.00
2023-02-28T07:28:50.241Z,-11175.09
2023-02-28T07:31:56.622Z,-11174.81
2023-02-28T07:35:04.266Z,-11185.94
2023-02-28T07:38:11.208Z,-11182.97
2023-02-28T07:41:17.963Z,-11188.19
2023-02-28T07:44:24.210Z,-11204.34
2023-02-28T07:47:31.524Z,-11193.25
2023-02-28T07:50:39.347Z,-11204.78
2023-02-28T07:53:45.657Z,-11212.66
2023-02-28T07:56:51.755Z,-11217.16
2023-02-28T07:59:58.040Z,-11211.53
2023-02-28T08:03:04.343Z,-11218.84
2023-02-28T08:06:19.213Z,-11234.03
2023-02-28T08:09:25.578Z,-11228.69
2023-02-28T08:12:32.002Z,-11218.41
2023-02-28T08:15:38.662Z,-11213.78
2023-02-28T08:18:45.163Z,-11243.75
2023-02-28T08:21:53.186Z,-11223.06
2023-02-28T08:24:59.730Z,-11235.72
2023-02-28T08:28:06.793Z,-11227.56
2023-02-28T08:31:15.720Z,-11249.22
2023-02-28T08:34:22.273Z,-11265.28
2023-02-28T08:37:29.991Z,-11255.84
2023-02-28T08:40:36.730Z,-11261.47
2023-02-28T08:43:43.765Z,-11257.81
2023-02-28T08:46:50.200Z,-11262.16
2023-02-28T08:49:56.407Z,-11270.47
2023-02-28T08:53:03.991Z,-11265.97
2023-02-28T08:56:11.755Z,-11265.41
2023-02-28T08:59:17.862Z,-11247.81
2023-02-28T09:02:24.101Z,-11266.97
2023-02-28T09:05:31.056Z,-11249.22
2023-02-28T09:08:38.983Z,-11255.69
2023-02-28T09:11:45.021Z,-11268.50
2023-02-28T09:14:51.072Z,-11263.44
2023-02-28T09:17:57.365Z,-11258.38
2023-02-28T09:21:05.939Z,-11260.34
2023-02-28T09:24:15.491Z,-11272.16
2023-02-28T09:27:21.488Z,-11277.22
2023-02-28T09:30:27.893Z,-11282.00
2023-02-28T09:33:35.392Z,-11280.88
2023-02-28T09:36:45.619Z,-11278.63
2023-02-28T09:39:54.182Z,-11281.16
2023-02-28T09:43:02.369Z,-11273.56
2023-02-28T09:46:16.847Z,-11284.84
2023-02-28T09:49:27.781Z,-11291.31
2023-02-28T09:52:36.055Z,-11281.72
2023-02-28T09:55:47.476Z,-11282.16
2023-02-28T09:58:57.363Z,-11279.63
2023-02-28T10:02:12.926Z,-11277.78
2023-02-28T10:05:22.287Z,-11299.19
2023-02-28T10:08:33.738Z,-11290.88
2023-02-28T10:11:43.903Z,-11295.81
2023-02-28T10:14:54.025Z,-11302.84
2023-02-28T10:18:09.026Z,-11300.59
2023-02-28T10:21:23.228Z,-11298.06
2023-02-28T10:24:34.774Z,-11301.44
2023-02-28T10:27:42.802Z,-11303.13
2023-02-28T10:30:51.189Z,-11292.16
2023-02-28T10:33:58.008Z,-11301.03
2023-02-28T10:37:09.362Z,-11295.81
2023-02-28T10:40:30.558Z,-11275.69
2023-02-28T10:43:39.408Z,-11288.47
2023-02-28T10:46:45.772Z,-11295.66
2023-02-28T10:49:54.180Z,-11294.41
2023-02-28T10:53:11.204Z,-11308.34
2023-02-28T10:56:22.347Z,-11312.72
2023-02-28T10:59:32.758Z,-11312.84
2023-02-28T11:02:58.206Z,-11310.72
2023-02-28T11:06:11.165Z,-11315.53
2023-02-28T11:09:27.313Z,-11320.72
2023-02-28T11:12:50.857Z,-11313.56
2023-02-28T11:16:03.364Z,-11316.50
2023-02-28T11:19:21.508Z,-11311.16
2023-02-28T11:22:33.785Z,-11309.03
2023-02-28T11:25:41.313Z,-11298.63
2023-02-28T11:28:47.585Z,-11305.94
2023-02-28T11:32:15.848Z,-11310.44
2023-02-28T11:35:29.005Z,-11307.91
2023-02-28T11:38:38.321Z,-11309.75
2023-02-28T11:42:02.865Z,-11306.09
2023-02-28T11:45:31.800Z,-11300.59
2023-02-28T11:48:49.616Z,-11299.63
2023-02-28T11:52:01.422Z,-11305.38
2023-02-28T11:55:19.320Z,-11308.63
2023-02-28T11:58:41.782Z,-11303.28
2023-02-28T12:02:18.773Z,-11312.56
2023-02-28T12:05:36.027Z,-11305.25
2023-02-28T12:08:53.584Z,-11299.19
2023-02-28T12:12:06.970Z,-11295.81
2023-02-28T12:15:36.355Z,-11299.75
2023-02-28T12:18:57.833Z,-11303.28
2023-02-28T12:22:30.568Z,-11304.25
2023-02-28T12:25:57.099Z,-11302.56
2023-02-28T12:29:12.958Z,-11306.22
2023-02-28T12:32:24.078Z,-11310.31
2023-02-28T12:35:37.007Z,-11307.22
2023-02-28T12:38:49.922Z,-11300.47
2023-02-28T12:42:03.340Z,-11304.97
2023-02-28T12:45:15.152Z,-11303.13
2023-02-28T12:48:28.318Z,-11294.97
2023-02-28T12:51:37.436Z,-11301.31
2023-02-28T12:54:51.831Z,-11306.50
2023-02-28T12:58:07.875Z,-11306.66
2023-02-28T13:01:44.759Z,-11302.28
2023-02-28T13:05:52.372Z,-11300.88
2023-02-28T13:09:17.254Z,-11295.25
2023-02-28T13:12:26.267Z,-11296.78
2023-02-28T13:15:36.278Z,-11289.34
2023-02-28T13:18:46.804Z,-11288.91
2023-02-28T13:21:54.667Z,-11281.16
2023-02-28T13:25:01.404Z,-11282.28
2023-02-28T13:28:15.462Z,-11278.06
2023-02-28T13:31:22.350Z,-11274.84
2023-02-28T13:34:28.890Z,-11267.81
2023-02-28T13:37:39.366Z,-11254.72
2023-02-28T13:40:45.630Z,-11263.03
2023-02-28T13:44:08.153Z,-11251.34
2023-02-28T13:47:30.051Z,-11248.53
2023-02-28T13:50:39.091Z,-11249.94
2023-02-28T13:54:00.389Z,-11245.28
2023-02-28T13:57:21.853Z,-11239.94
2023-02-28T14:00:44.623Z,-11236.00
2023-02-28T14:04:12.042Z,-11237.13
2023-02-28T14:07:25.757Z,-11231.34
2023-02-28T14:10:34.950Z,-11232.75
2023-02-28T14:13:48.010Z,-11234.75
2023-02-28T14:16:56.922Z,-11237.84
2023-02-28T14:20:04.713Z,-11228.81
2023-02-28T14:23:18.694Z,-11227.13
2023-02-28T14:26:59.882Z,-11229.94
2023-02-28T14:30:17.937Z,-11229.66
2023-02-28T14:33:34.233Z,-11228.25
2023-02-28T14:36:43.553Z,-11229.66
2023-02-28T14:39:50.828Z,-11229.53
2023-02-28T14:43:03.709Z,-11226.28
2023-02-28T14:46:09.799Z,-11220.66
2023-02-28T14:49:21.897Z,-11234.47
2023-02-28T14:52:30.945Z,-11233.19
2023-02-28T14:55:38.342Z,-11226.44
2023-02-28T14:58:54.189Z,-11227.28
2023-02-28T15:02:21.477Z,-11223.91
2023-02-28T15:05:31.773Z,-11223.47
2023-02-28T15:08:38.058Z,-11222.91
2023-02-28T15:11:48.139Z,-11229.53
2023-02-28T15:14:54.664Z,-11218.97
2023-02-28T15:18:04.653Z,-11214.19
2023-02-28T15:21:17.779Z,-11218.13
2023-02-28T15:24:32.846Z,-11213.50
2023-02-28T15:27:44.853Z,-11208.28
2023-02-28T15:31:00.120Z,-11208.28
2023-02-28T15:34:08.460Z,-11207.44
2023-02-28T15:37:39.831Z,-11208.00
2023-02-28T15:40:54.848Z,-11198.03
2023-02-28T15:44:19.350Z,-11202.09
2023-02-28T15:47:28.621Z,-11200.69
2023-02-28T15:50:35.105Z,-11203.50
2023-02-28T15:53:50.071Z,-11199.16
2023-02-28T15:56:58.726Z,-11198.72
2023-02-28T16:00:06.928Z,-11195.34
2023-02-28T16:03:25.997Z,-11193.66
2023-02-28T16:06:38.424Z,-11187.91
2023-02-28T16:09:45.806Z,-11182.97
2023-02-28T16:12:52.096Z,-11191.56
2023-02-28T16:15:57.922Z,-11185.78
2023-02-28T16:19:04.188Z,-11188.03
2023-02-28T16:22:11.265Z,-11181.84
2023-02-28T16:25:20.813Z,-11186.78
2023-02-28T16:28:33.819Z,-11185.22
2023-02-28T16:31:40.696Z,-11180.72
2023-02-28T16:34:47.049Z,-11179.03
2023-02-28T16:37:54.086Z,-11175.94
2023-02-28T16:41:02.914Z,-11183.25
2023-02-28T16:44:15.826Z,-11182.41
2023-02-28T16:47:21.871Z,-11179.75
2023-02-28T16:50:30.066Z,-11180.59
2023-02-28T16:53:36.236Z,-11180.16
2023-02-28T16:56:47.074Z,-11183.41
2023-02-28T16:59:53.412Z,-11182.00
2023-02-28T17:03:00.523Z,-11175.53
2023-02-28T17:06:08.433Z,-11174.97
2023-02-28T17:09:20.322Z,-11185.78
2023-02-28T17:12:28.476Z,-11182.97
2023-02-28T17:15:34.450Z,-11179.88
2023-02-28T17:18:40.457Z,-11179.19
2023-02-28T17:21:47.157Z,-11179.75
2023-02-28T17:24:52.961Z,-11180.88
2023-02-28T17:28:00.199Z,-11183.25
2023-02-28T17:31:07.071Z,-11172.03
2023-02-28T17:34:19.132Z,-11180.72
2023-02-28T17:37:25.184Z,-11170.63
2023-02-28T17:40:31.177Z,-11162.75
2023-02-28T17:43:38.967Z,-11163.16
2023-02-28T17:46:45.945Z,-11175.94
2023-02-28T17:49:52.145Z,-11168.37
2023-02-28T17:52:58.624Z,-11173.28
2023-02-28T17:56:05.397Z,-11180.03
2023-02-28T17:59:14.397Z,-11175.09
2023-02-28T18:02:20.721Z,-11170.06
2023-02-28T18:05:27.401Z,-11176.22
2023-02-28T18:08:36.346Z,-11169.78
2023-02-28T18:11:49.151Z,-11175.66
2023-02-28T18:14:56.964Z,-11175.09
2023-02-28T18:18:03.471Z,-11173.72
2023-02-28T18:21:10.933Z,-11174.97
2023-02-28T18:24:17.681Z,-11176.38
2023-02-28T18:27:24.040Z,-11169.06
2023-02-28T18:30:33.569Z,-11171.47
2023-02-28T18:33:39.844Z,-11173.00
2023-02-28T18:36:47.354Z,-11169.91
2023-02-28T18:39:54.239Z,-11169.34
2023-02-28T18:43:00.983Z,-11169.78
2023-02-28T18:46:11.021Z,-11170.34
2023-02-28T18:49:17.356Z,-11169.63
2023-02-28T18:52:23.653Z,-11171.47
2023-02-28T18:55:29.674Z,-11170.34
2023-02-28T18:58:36.688Z,-11172.03
2023-02-28T19:01:46.744Z,-11165.56
2023-02-28T19:04:53.387Z,-11165.28
2023-02-28T19:07:59.810Z,-11168.09
2023-02-28T19:11:09.361Z,-11162.47
2023-02-28T19:14:15.596Z,-11166.13
2023-02-28T19:17:23.294Z,-11167.38
2023-02-28T19:20:29.516Z,-11163.03
2023-02-28T19:23:36.204Z,-11160.63
2023-02-28T19:26:42.717Z,-11165.00
2023-02-28T19:29:50.031Z,-11162.75
2023-02-28T19:32:57.719Z,-11157.53
2023-02-28T19:36:04.096Z,-11157.97
2023-02-28T19:39:10.081Z,-11153.59
2023-02-28T19:42:17.906Z,-11156.13
2023-02-28T19:45:24.466Z,-11162.31
2023-02-28T19:48:32.076Z,-11159.38
2023-02-28T19:51:38.494Z,-11159.66
2023-02-28T19:54:44.570Z,-11154.88
2023-02-28T19:57:50.542Z,-11156.00
2023-02-28T20:00:56.945Z,-11157.13
2023-02-28T20:04:05.967Z,-11153.75
2023-02-28T20:07:12.239Z,-11156.97
2023-02-28T20:10:18.846Z,-11159.78
2023-02-28T20:13:28.106Z,-11157.25
2023-02-28T20:16:34.434Z,-11155.00
2023-02-28T20:19:41.754Z,-11157.69
2023-02-28T20:22:48.161Z,-11157.41
2023-02-28T20:25:54.277Z,-11156.84
2023-02-28T20:29:00.626Z,-11155.44
2023-02-28T20:32:08.269Z,-11157.53
2023-02-28T20:35:15.963Z,-11154.88
2023-02-28T20:38:22.427Z,-11154.88
2023-02-28T20:41:28.846Z,-11151.78
2023-02-28T20:44:35.123Z,-11149.81
2023-02-28T20:47:42.568Z,-11148.53
2023-02-28T20:50:55.256Z,-11152.47
2023-02-28T20:54:02.368Z,-11150.38
2023-02-28T20:57:09.488Z,-11148.81
2023-02-28T21:00:19.582Z,-11150.38
2023-02-28T21:03:25.507Z,-11147.56
2023-02-28T21:06:35.525Z,-11148.97
2023-02-28T21:09:41.446Z,-11148.81
2023-02-28T21:12:50.801Z,-11141.94
2023-02-28T21:15:57.268Z,-11142.50
2023-02-28T21:19:05.028Z,-11139.84
2023-02-28T21:22:14.063Z,-11144.47
2023-02-28T21:25:20.238Z,-11138.28
2023-02-28T21:28:26.261Z,-11142.38
2023-02-28T21:31:34.831Z,-11142.66
2023-02-28T21:34:41.630Z,-11142.22
2023-02-28T21:37:49.361Z,-11135.06
2023-02-28T21:40:55.338Z,-11134.91
2023-02-28T21:44:01.548Z,-11133.66
2023-02-28T21:47:07.750Z,-11134.22
2023-02-28T21:50:13.883Z,-11134.34
2023-02-28T21:53:22.041Z,-11124.81
2023-02-28T21:56:31.239Z,-11132.94
2023-02-28T21:59:37.775Z,-11129.44
2023-02-28T22:02:44.148Z,-11132.09
2023-02-28T22:05:50.257Z,-11121.44
2023-02-28T22:08:59.284Z,-11118.91
2023-02-28T22:12:08.544Z,-11130.97
2023-02-28T22:15:14.820Z,-11128.59
2023-02-28T22:18:21.119Z,-11120.88
2023-02-28T22:21:27.583Z,-11118.06
2023-02-28T22:24:35.440Z,-11115.97
2023-02-28T22:27:41.943Z,-11110.47
2023-02-28T22:30:49.152Z,-11102.19
2023-02-28T22:33:57.624Z,-11105.16
2023-02-28T22:37:04.085Z,-11120.59
2023-02-28T22:40:13.392Z,-11107.69
2023-02-28T22:43:19.406Z,-11120.59
2023-02-28T22:46:27.708Z,-11120.31
2023-02-28T22:49:33.909Z,-11109.34
2023-02-28T22:52:41.354Z,-11121.28
2023-02-28T22:55:56.130Z,-11116.66
2023-02-28T22:59:03.128Z,-11122.84
2023-02-28T23:02:09.188Z,-11126.22
2023-02-28T23:05:16.170Z,-11122.97
2023-02-28T23:08:23.386Z,-11116.94
2023-02-28T23:11:33.626Z,-11117.09
2023-02-28T23:14:39.903Z,-11121.44
2023-02-28T23:17:48.590Z,-11119.59
2023-02-28T23:20:57.545Z,-11123.81
2023-02-28T23:24:04.956Z,-11123.41
2023-02-28T23:27:12.662Z,-11126.50
2023-02-28T23:30:19.211Z,-11126.63
2023-02-28T23:33:26.479Z,-11122.00
2023-02-28T23:36:33.526Z,-11121.28
2023-02-28T23:39:41.561Z,-11123.13
2023-02-28T23:42:49.508Z,-11123.25
2023-02-28T23:45:58.713Z,-11124.25
2023-02-28T23:49:04.874Z,-11124.25
2023-02-28T23:52:11.085Z,-11121.00
2023-02-28T23:55:17.623Z,-11122.28
2023-02-28T23:58:25.698Z,-11119.31
